sensor_id;sensor_type;location;lat;lon;timestamp;pressure;altitude;pressure_sealevel;temperature;humidity
70445;BME280;57902;49.638;11.070;2023-04-09T00:01:22;99012.69;;;5.91;100.00
70445;BME280;57902;49.638;11.070;2023-04-09T00:04:11;99013.53;;;5.94;100.00
70445;BME280;57902;49.638;11.070;2023-04-09T00:07:01;99010.13;;;5.94;100.00
70445;BME280;57902;49.638;11.070;2023-04-09T00:16:37;99010.13;;;5.85;100.00
70445;BME280;57902;49.638;11.070;2023-04-09T00:19:14;99013.53;;;5.81;100.00
70445;BME280;57902;49.638;11.070;2023-04-09T00:22:03;99010.97;;;5.82;100.00
70445;BME280;57902;49.638;11.070;2023-04-09T00:24:36;99010.97;;;5.81;100.00
70445;BME280;57902;49.638;11.070;2023-04-09T00:27:38;99009.25;;;5.79;100.00
70445;BME280;57902;49.638;11.070;2023-04-09T00:30:54;99008.41;;;5.77;100.00
70445;BME280;57902;49.638;11.070;2023-04-09T00:33:47;99001.59;;;5.76;100.00
70445;BME280;57902;49.638;11.070;2023-04-09T00:36:39;99008.41;;;5.74;100.00
70445;BME280;57902;49.638;11.070;2023-04-09T00:42:53;99006.69;;;5.70;100.00
70445;BME280;57902;49.638;11.070;2023-04-09T00:45:23;99004.16;;;5.70;100.00
70445;BME280;57902;49.638;11.070;2023-04-09T00:47:54;99009.25;;;5.72;100.00
70445;BME280;57902;49.638;11.070;2023-04-09T00:50:27;99010.09;;;5.69;100.00
70445;BME280;57902;49.638;11.070;2023-04-09T00:53:09;99012.66;;;5.71;100.00
70445;BME280;57902;49.638;11.070;2023-04-09T00:55:45;99003.31;;;5.68;100.00
70445;BME280;57902;49.638;11.070;2023-04-09T00:58:34;99004.16;;;5.70;100.00
70445;BME280;57902;49.638;11.070;2023-04-09T01:01:38;99007.53;;;5.69;100.00
70445;BME280;57902;49.638;11.070;2023-04-09T01:04:24;99006.69;;;5.63;100.00
70445;BME280;57902;49.638;11.070;2023-04-09T01:07:34;99007.53;;;5.63;100.00
70445;BME280;57902;49.638;11.070;2023-04-09T01:10:41;99005.81;;;5.59;100.00
70445;BME280;57902;49.638;11.070;2023-04-09T01:16:12;99003.25;;;5.59;100.00
70445;BME280;57902;49.638;11.070;2023-04-09T01:28:46;98997.31;;;5.54;100.00
70445;BME280;57902;49.638;11.070;2023-04-09T01:31:27;98998.97;;;5.47;100.00
70445;BME280;57902;49.638;11.070;2023-04-09T01:34:01;98994.69;;;5.46;100.00
70445;BME280;57902;49.638;11.070;2023-04-09T01:36:47;98994.69;;;5.44;100.00
70445;BME280;57902;49.638;11.070;2023-04-09T01:39:30;99001.53;;;5.46;100.00
70445;BME280;57902;49.638;11.070;2023-04-09T01:42:08;98996.41;;;5.39;100.00
70445;BME280;57902;49.638;11.070;2023-04-09T01:44:47;98996.41;;;5.36;100.00
70445;BME280;57902;49.638;11.070;2023-04-09T01:48:03;98995.56;;;5.42;100.00
70445;BME280;57902;49.638;11.070;2023-04-09T01:53:39;99003.22;;;5.40;100.00
70445;BME280;57902;49.638;11.070;2023-04-09T01:56:25;99000.69;;;5.40;100.00
70445;BME280;57902;49.638;11.070;2023-04-09T01:58:58;99000.69;;;5.39;100.00
70445;BME280;57902;49.638;11.070;2023-04-09T02:01:54;98997.22;;;5.34;100.00
70445;BME280;57902;49.638;11.070;2023-04-09T02:04:33;99004.06;;;5.33;100.00
70445;BME280;57902;49.638;11.070;2023-04-09T02:07:40;99013.41;;;5.34;100.00
70445;BME280;57902;49.638;11.070;2023-04-09T02:10:14;98999.78;;;5.35;100.00
70445;BME280;57902;49.638;11.070;2023-04-09T02:13:10;99010.00;;;5.32;100.00
70445;BME280;57902;49.638;11.070;2023-04-09T02:15:48;99012.59;;;5.40;100.00
70445;BME280;57902;49.638;11.070;2023-04-09T02:18:24;99010.03;;;5.38;100.00
70445;BME280;57902;49.638;11.070;2023-04-09T02:21:00;99010.03;;;5.35;100.00
70445;BME280;57902;49.638;11.070;2023-04-09T02:23:39;99010.84;;;5.33;100.00
70445;BME280;57902;49.638;11.070;2023-04-09T02:26:05;99001.47;;;5.25;100.00
70445;BME280;57902;49.638;11.070;2023-04-09T02:28:32;99006.56;;;5.24;100.00
70445;BME280;57902;49.638;11.070;2023-04-09T02:30:58;99006.59;;;5.27;100.00
70445;BME280;57902;49.638;11.070;2023-04-09T02:33:25;99007.44;;;5.18;100.00
70445;BME280;57902;49.638;11.070;2023-04-09T02:35:51;99004.00;;;5.15;100.00
70445;BME280;57902;49.638;11.070;2023-04-09T02:38:18;99005.69;;;5.13;100.00
70445;BME280;57902;49.638;11.070;2023-04-09T02:40:44;99003.97;;;5.08;100.00
70445;BME280;57902;49.638;11.070;2023-04-09T02:43:11;99000.53;;;5.06;100.00
70445;BME280;57902;49.638;11.070;2023-04-09T02:45:37;99009.06;;;4.99;100.00
70445;BME280;57902;49.638;11.070;2023-04-09T02:48:04;99002.22;;;4.95;100.00
70445;BME280;57902;49.638;11.070;2023-04-09T02:50:30;99005.59;;;4.88;100.00
70445;BME280;57902;49.638;11.070;2023-04-09T02:52:57;98999.56;;;4.81;100.00
70445;BME280;57902;49.638;11.070;2023-04-09T02:55:23;98997.84;;;4.76;100.00
70445;BME280;57902;49.638;11.070;2023-04-09T02:57:49;98996.06;;;4.65;100.00
70445;BME280;57902;49.638;11.070;2023-04-09T03:00:16;98997.00;;;4.77;100.00
70445;BME280;57902;49.638;11.070;2023-04-09T03:02:42;99001.22;;;4.68;100.00
70445;BME280;57902;49.638;11.070;2023-04-09T03:05:10;98997.75;;;4.59;100.00
70445;BME280;57902;49.638;11.070;2023-04-09T03:07:36;98996.84;;;4.50;100.00
70445;BME280;57902;49.638;11.070;2023-04-09T03:10:03;98994.22;;;4.36;100.00
70445;BME280;57902;49.638;11.070;2023-04-09T03:12:30;98996.75;;;4.32;100.00
70445;BME280;57902;49.638;11.070;2023-04-09T03:14:56;99000.09;;;4.26;100.00
70445;BME280;57902;49.638;11.070;2023-04-09T03:17:22;98997.53;;;4.23;100.00
70445;BME280;57902;49.638;11.070;2023-04-09T03:19:52;98998.31;;;4.13;100.00
70445;BME280;57902;49.638;11.070;2023-04-09T03:22:19;98997.44;;;4.14;100.00
70445;BME280;57902;49.638;11.070;2023-04-09T03:24:45;98996.56;;;4.07;100.00
70445;BME280;57902;49.638;11.070;2023-04-09T03:27:12;99000.72;;;3.97;100.00
70445;BME280;57902;49.638;11.070;2023-04-09T03:29:38;99000.66;;;3.90;100.00
70445;BME280;57902;49.638;11.070;2023-04-09T03:32:05;99003.13;;;3.80;100.00
70445;BME280;57902;49.638;11.070;2023-04-09T03:34:31;98998.84;;;3.78;100.00
70445;BME280;57902;49.638;11.070;2023-04-09T03:36:57;99003.06;;;3.76;100.00
70445;BME280;57902;49.638;11.070;2023-04-09T03:39:24;98997.13;;;3.77;100.00
70445;BME280;57902;49.638;11.070;2023-04-09T03:41:51;99000.53;;;3.77;100.00
70445;BME280;57902;49.638;11.070;2023-04-09T03:44:18;99002.22;;;3.77;100.00
70445;BME280;57902;49.638;11.070;2023-04-09T03:46:44;99004.78;;;3.77;100.00
70445;BME280;57902;49.638;11.070;2023-04-09T03:49:11;99003.97;;;3.79;100.00
70445;BME280;57902;49.638;11.070;2023-04-09T03:51:38;98998.81;;;3.72;100.00
70445;BME280;57902;49.638;11.070;2023-04-09T03:54:04;99001.31;;;3.68;100.00
70445;BME280;57902;49.638;11.070;2023-04-09T03:56:31;99001.34;;;3.70;100.00
70445;BME280;57902;49.638;11.070;2023-04-09T03:58:57;99007.28;;;3.71;100.00
70445;BME280;57902;49.638;11.070;2023-04-09T04:01:23;99003.91;;;3.72;100.00
70445;BME280;57902;49.638;11.070;2023-04-09T04:03:51;99014.06;;;3.68;100.00
70445;BME280;57902;49.638;11.070;2023-04-09T04:06:18;99012.34;;;3.67;100.00
70445;BME280;57902;49.638;11.070;2023-04-09T04:08:44;99016.66;;;3.73;100.00
70445;BME280;57902;49.638;11.070;2023-04-09T04:11:11;99014.91;;;3.67;100.00
70445;BME280;57902;49.638;11.070;2023-04-09T04:13:37;99020.78;;;3.62;100.00
70445;BME280;57902;49.638;11.070;2023-04-09T04:16:08;99013.09;;;3.57;100.00
70445;BME280;57902;49.638;11.070;2023-04-09T04:18:35;99015.63;;;3.54;100.00
70445;BME280;57902;49.638;11.070;2023-04-09T04:21:02;99023.22;;;3.49;100.00
70445;BME280;57902;49.638;11.070;2023-04-09T04:23:29;99031.69;;;3.48;100.00
70445;BME280;57902;49.638;11.070;2023-04-09T04:25:56;99030.78;;;3.43;100.00
70445;BME280;57902;49.638;11.070;2023-04-09T04:28:23;99038.38;;;3.37;100.00
70445;BME280;57902;49.638;11.070;2023-04-09T04:30:49;99033.22;;;3.32;100.00
70445;BME280;57902;49.638;11.070;2023-04-09T04:33:16;99040.09;;;3.38;100.00
70445;BME280;57902;49.638;11.070;2023-04-09T04:35:42;99037.50;;;3.35;100.00
70445;BME280;57902;49.638;11.070;2023-04-09T04:38:09;99038.25;;;3.26;100.00
70445;BME280;57902;49.638;11.070;2023-04-09T04:40:35;99039.91;;;3.26;100.00
70445;BME280;57902;49.638;11.070;2023-04-09T04:43:02;99043.31;;;3.23;100.00
70445;BME280;57902;49.638;11.070;2023-04-09T04:45:28;99045.88;;;3.25;100.00
70445;BME280;57902;49.638;11.070;2023-04-09T04:47:55;99044.09;;;3.19;100.00
70445;BME280;57902;49.638;11.070;2023-04-09T04:50:21;99048.28;;;3.15;100.00
70445;BME280;57902;49.638;11.070;2023-04-09T04:52:47;99051.56;;;3.07;100.00
70445;BME280;57902;49.638;11.070;2023-04-09T04:55:14;99052.41;;;3.04;100.00
70445;BME280;57902;49.638;11.070;2023-04-09T04:57:40;99049.88;;;3.04;100.00
70445;BME280;57902;49.638;11.070;2023-04-09T05:00:07;99060.97;;;3.11;100.00
70445;BME280;57902;49.638;11.070;2023-04-09T05:02:34;99061.13;;;3.20;100.00
70445;BME280;57902;49.638;11.070;2023-04-09T05:05:01;99056.91;;;3.24;100.00
70445;BME280;57902;49.638;11.070;2023-04-09T05:07:27;99051.06;;;3.32;100.00
70445;BME280;57902;49.638;11.070;2023-04-09T05:09:54;99053.75;;;3.48;100.00
70445;BME280;57902;49.638;11.070;2023-04-09T05:12:20;99048.06;;;3.67;100.00
70445;BME280;57902;49.638;11.070;2023-04-09T05:14:46;99049.34;;;4.16;100.00
70445;BME280;57902;49.638;11.070;2023-04-09T05:17:13;99049.75;;;4.70;95.33
70445;BME280;57902;49.638;11.070;2023-04-09T05:19:40;99044.97;;;5.29;93.28
70445;BME280;57902;49.638;11.070;2023-04-09T05:22:11;99051.03;;;5.72;90.42
70445;BME280;57902;49.638;11.070;2023-04-09T05:24:38;99043.47;;;6.19;87.60
70445;BME280;57902;49.638;11.070;2023-04-09T05:27:04;99054.50;;;6.76;84.53
70445;BME280;57902;49.638;11.070;2023-04-09T05:29:31;99054.31;;;7.38;82.77
70445;BME280;57902;49.638;11.070;2023-04-09T05:31:57;99049.00;;;7.80;80.25
70445;BME280;57902;49.638;11.070;2023-04-09T05:34:23;99053.81;;;8.24;76.99
70445;BME280;57902;49.638;11.070;2023-04-09T05:36:50;99053.53;;;8.62;74.76
70445;BME280;57902;49.638;11.070;2023-04-09T05:39:16;99055.88;;;8.85;73.11
70445;BME280;57902;49.638;11.070;2023-04-09T05:41:43;99055.72;;;9.02;71.41
70445;BME280;57902;49.638;11.070;2023-04-09T05:44:10;99054.47;;;9.32;71.19
70445;BME280;57902;49.638;11.070;2023-04-09T05:46:37;99059.34;;;9.55;69.99
70445;BME280;57902;49.638;11.070;2023-04-09T05:49:05;99060.00;;;9.71;69.84
70445;BME280;57902;49.638;11.070;2023-04-09T05:51:31;99056.38;;;9.85;68.29
70445;BME280;57902;49.638;11.070;2023-04-09T05:53:58;99061.16;;;9.50;67.83
70445;BME280;57902;49.638;11.070;2023-04-09T05:56:24;99061.06;;;9.56;69.36
70445;BME280;57902;49.638;11.070;2023-04-09T05:58:53;99057.03;;;9.34;70.54
70445;BME280;57902;49.638;11.070;2023-04-09T06:01:19;99058.56;;;10.11;69.43
70445;BME280;57902;49.638;11.070;2023-04-09T06:03:46;99062.22;;;10.54;68.86
70445;BME280;57902;49.638;11.070;2023-04-09T06:06:13;99065.88;;;10.90;66.02
70445;BME280;57902;49.638;11.070;2023-04-09T06:08:39;99067.22;;;10.61;63.51
70445;BME280;57902;49.638;11.070;2023-04-09T06:11:08;99065.28;;;11.21;64.64
70445;BME280;57902;49.638;11.070;2023-04-09T06:13:35;99072.28;;;11.16;61.49
70445;BME280;57902;49.638;11.070;2023-04-09T06:16:06;99067.72;;;11.29;60.41
70445;BME280;57902;49.638;11.070;2023-04-09T06:18:33;99061.28;;;11.89;60.37
70445;BME280;57902;49.638;11.070;2023-04-09T06:21:03;99072.81;;;12.15;58.82
70445;BME280;57902;49.638;11.070;2023-04-09T06:23:31;99072.16;;;12.42;58.79
70445;BME280;57902;49.638;11.070;2023-04-09T06:25:58;99069.03;;;12.64;57.87
70445;BME280;57902;49.638;11.070;2023-04-09T06:28:25;99072.78;;;12.85;56.38
70445;BME280;57902;49.638;11.070;2023-04-09T06:30:51;99069.91;;;12.27;57.34
70445;BME280;57902;49.638;11.070;2023-04-09T06:33:20;99079.22;;;12.70;58.31
70445;BME280;57902;49.638;11.070;2023-04-09T06:35:47;99077.66;;;13.29;57.83
70445;BME280;57902;49.638;11.070;2023-04-09T06:38:14;99079.09;;;13.08;59.07
70445;BME280;57902;49.638;11.070;2023-04-09T06:40:44;99079.13;;;13.69;56.25
70445;BME280;57902;49.638;11.070;2023-04-09T06:43:11;99079.81;;;13.76;56.49
70445;BME280;57902;49.638;11.070;2023-04-09T06:45:37;99081.03;;;13.31;56.22
70445;BME280;57902;49.638;11.070;2023-04-09T06:48:06;99079.38;;;13.61;55.30
70445;BME280;57902;49.638;11.070;2023-04-09T06:50:32;99089.09;;;13.53;56.52
70445;BME280;57902;49.638;11.070;2023-04-09T06:52:59;99083.13;;;13.51;55.73
70445;BME280;57902;49.638;11.070;2023-04-09T06:55:25;99085.75;;;13.79;54.26
70445;BME280;57902;49.638;11.070;2023-04-09T06:57:52;99086.41;;;13.56;55.23
70445;BME280;57902;49.638;11.070;2023-04-09T07:00:19;99086.38;;;13.88;54.71
70445;BME280;57902;49.638;11.070;2023-04-09T07:02:45;99086.41;;;13.86;55.73
70445;BME280;57902;49.638;11.070;2023-04-09T07:05:12;99083.34;;;13.73;54.41
70445;BME280;57902;49.638;11.070;2023-04-09T07:07:39;99083.81;;;14.41;52.84
70445;BME280;57902;49.638;11.070;2023-04-09T07:10:06;99090.25;;;14.29;52.30
70445;BME280;57902;49.638;11.070;2023-04-09T07:12:33;99087.56;;;14.32;51.95
70445;BME280;57902;49.638;11.070;2023-04-09T07:15:04;99088.69;;;14.50;53.79
70445;BME280;57902;49.638;11.070;2023-04-09T07:17:32;99096.38;;;14.82;52.08
70445;BME280;57902;49.638;11.070;2023-04-09T07:19:59;99092.69;;;14.34;52.52
70445;BME280;57902;49.638;11.070;2023-04-09T07:22:26;99093.13;;;14.75;53.32
70445;BME280;57902;49.638;11.070;2023-04-09T07:24:53;99086.31;;;14.98;50.98
70445;BME280;57902;49.638;11.070;2023-04-09T07:27:23;99094.25;;;15.66;50.13
70445;BME280;57902;49.638;11.070;2023-04-09T07:29:54;99096.31;;;14.83;51.22
70445;BME280;57902;49.638;11.070;2023-04-09T07:32:22;99093.44;;;15.40;50.22
70445;BME280;57902;49.638;11.070;2023-04-09T07:34:52;99093.88;;;14.79;50.81
70445;BME280;57902;49.638;11.070;2023-04-09T07:37:19;99092.19;;;15.27;50.88
70445;BME280;57902;49.638;11.070;2023-04-09T07:39:46;99100.25;;;15.44;50.83
70445;BME280;57902;49.638;11.070;2023-04-09T07:42:13;99095.06;;;15.91;48.68
70445;BME280;57902;49.638;11.070;2023-04-09T07:44:39;99097.47;;;15.49;50.62
70445;BME280;57902;49.638;11.070;2023-04-09T07:47:06;99092.47;;;16.36;46.98
70445;BME280;57902;49.638;11.070;2023-04-09T07:49:36;99099.97;;;15.75;49.82
70445;BME280;57902;49.638;11.070;2023-04-09T07:52:03;99091.53;;;15.92;48.16
70445;BME280;57902;49.638;11.070;2023-04-09T07:54:30;99088.66;;;16.22;47.04
70445;BME280;57902;49.638;11.070;2023-04-09T07:56:57;99087.50;;;16.72;47.49
70445;BME280;57902;49.638;11.070;2023-04-09T07:59:27;99091.56;;;16.57;45.07
70445;BME280;57902;49.638;11.070;2023-04-09T08:01:54;99093.50;;;16.32;44.91
70445;BME280;57902;49.638;11.070;2023-04-09T08:04:21;99091.34;;;15.97;46.68
70445;BME280;57902;49.638;11.070;2023-04-09T08:06:48;99092.69;;;16.52;44.78
70445;BME280;57902;49.638;11.070;2023-04-09T08:09:19;99096.69;;;16.81;43.05
70445;BME280;57902;49.638;11.070;2023-04-09T08:11:47;99091.19;;;16.46;43.53
70445;BME280;57902;49.638;11.070;2023-04-09T08:14:15;99099.56;;;16.53;41.21
70445;BME280;57902;49.638;11.070;2023-04-09T08:16:43;99102.38;;;16.26;39.80
70445;BME280;57902;49.638;11.070;2023-04-09T08:19:10;99099.78;;;16.26;40.94
70445;BME280;57902;49.638;11.070;2023-04-09T08:21:37;99098.19;;;16.00;42.62
70445;BME280;57902;49.638;11.070;2023-04-09T08:24:04;99107.06;;;15.70;41.56
70445;BME280;57902;49.638;11.070;2023-04-09T08:26:38;99108.19;;;15.39;42.69
70445;BME280;57902;49.638;11.070;2023-04-09T08:29:06;99108.91;;;16.14;43.07
70445;BME280;57902;49.638;11.070;2023-04-09T08:31:33;99099.69;;;15.60;41.71
70445;BME280;57902;49.638;11.070;2023-04-09T08:34:01;99109.28;;;15.09;45.27
70445;BME280;57902;49.638;11.070;2023-04-09T08:36:27;99092.34;;;15.95;43.64
70445;BME280;57902;49.638;11.070;2023-04-09T08:38:54;99102.41;;;15.31;42.32
70445;BME280;57902;49.638;11.070;2023-04-09T08:41:23;99104.53;;;15.69;42.46
70445;BME280;57902;49.638;11.070;2023-04-09T08:43:51;99096.38;;;14.27;45.95
70445;BME280;57902;49.638;11.070;2023-04-09T08:46:24;99106.06;;;15.02;45.12
70445;BME280;57902;49.638;11.070;2023-04-09T08:48:54;99103.25;;;13.08;49.56
70445;BME280;57902;49.638;11.070;2023-04-09T08:51:22;99106.09;;;13.92;47.41
70445;BME280;57902;49.638;11.070;2023-04-09T08:53:59;99104.91;;;13.44;48.66
70445;BME280;57902;49.638;11.070;2023-04-09T08:56:29;99094.97;;;13.88;47.94
70445;BME280;57902;49.638;11.070;2023-04-09T08:58:56;99097.41;;;14.21;47.12
70445;BME280;57902;49.638;11.070;2023-04-09T09:01:25;99107.88;;;14.46;48.10
70445;BME280;57902;49.638;11.070;2023-04-09T09:04:03;99097.72;;;14.67;46.93
70445;BME280;57902;49.638;11.070;2023-04-09T09:06:33;99096.97;;;14.88;45.60
70445;BME280;57902;49.638;11.070;2023-04-09T09:09:04;99098.91;;;14.83;45.55
70445;BME280;57902;49.638;11.070;2023-04-09T09:11:33;99101.19;;;14.39;48.33
70445;BME280;57902;49.638;11.070;2023-04-09T09:16:28;99088.84;;;14.46;48.09
70445;BME280;57902;49.638;11.070;2023-04-09T09:18:54;99089.13;;;14.65;46.43
70445;BME280;57902;49.638;11.070;2023-04-09T09:21:24;99095.78;;;14.18;48.31
70445;BME280;57902;49.638;11.070;2023-04-09T09:23:54;99091.09;;;14.30;47.15
70445;BME280;57902;49.638;11.070;2023-04-09T09:26:23;99102.75;;;14.45;46.16
70445;BME280;57902;49.638;11.070;2023-04-09T09:28:51;99101.47;;;14.02;46.87
70445;BME280;57902;49.638;11.070;2023-04-09T09:31:19;99087.41;;;13.82;47.38
70445;BME280;57902;49.638;11.070;2023-04-09T09:33:49;99096.88;;;14.11;48.17
70445;BME280;57902;49.638;11.070;2023-04-09T09:36:33;99103.63;;;14.17;44.76
70445;BME280;57902;49.638;11.070;2023-04-09T09:39:01;99089.06;;;14.13;44.59
70445;BME280;57902;49.638;11.070;2023-04-09T09:41:30;99092.38;;;13.88;45.73
70445;BME280;57902;49.638;11.070;2023-04-09T09:43:57;99104.06;;;14.02;44.65
70445;BME280;57902;49.638;11.070;2023-04-09T09:46:24;99109.84;;;14.11;46.45
70445;BME280;57902;49.638;11.070;2023-04-09T09:48:55;99099.19;;;13.92;45.97
70445;BME280;57902;49.638;11.070;2023-04-09T09:51:25;99097.19;;;13.72;45.08
70445;BME280;57902;49.638;11.070;2023-04-09T09:53:55;99093.84;;;13.97;45.41
70445;BME280;57902;49.638;11.070;2023-04-09T09:56:24;99096.84;;;13.53;44.87
70445;BME280;57902;49.638;11.070;2023-04-09T10:01:31;99103.44;;;13.65;45.50
70445;BME280;57902;49.638;11.070;2023-04-09T10:03:59;99091.44;;;13.61;45.05
70445;BME280;57902;49.638;11.070;2023-04-09T10:06:26;99095.09;;;13.55;44.21
70445;BME280;57902;49.638;11.070;2023-04-09T10:08:57;99089.44;;;13.71;44.94
70445;BME280;57902;49.638;11.070;2023-04-09T10:11:24;99085.44;;;13.89;44.82
70445;BME280;57902;49.638;11.070;2023-04-09T10:13:58;99081.63;;;14.29;43.83
70445;BME280;57902;49.638;11.070;2023-04-09T10:16:27;99073.72;;;14.33;44.14
70445;BME280;57902;49.638;11.070;2023-04-09T10:18:55;99076.16;;;13.81;44.16
70445;BME280;57902;49.638;11.070;2023-04-09T10:21:55;99078.69;;;13.55;44.58
70445;BME280;57902;49.638;11.070;2023-04-09T10:24:23;99073.81;;;13.74;43.75
70445;BME280;57902;49.638;11.070;2023-04-09T10:26:53;99073.69;;;14.07;43.07
70445;BME280;57902;49.638;11.070;2023-04-09T10:29:26;99079.47;;;14.15;43.57
70445;BME280;57902;49.638;11.070;2023-04-09T10:32:03;99071.69;;;14.15;42.49
70445;BME280;57902;49.638;11.070;2023-04-09T10:34:42;99077.78;;;14.14;42.85
70445;BME280;57902;49.638;11.070;2023-04-09T10:37:24;99066.13;;;13.99;42.96
70445;BME280;57902;49.638;11.070;2023-04-09T10:39:51;99065.81;;;14.10;42.54
70445;BME280;57902;49.638;11.070;2023-04-09T10:42:25;99070.81;;;13.88;43.86
70445;BME280;57902;49.638;11.070;2023-04-09T10:45:12;99059.78;;;13.81;42.21
70445;BME280;57902;49.638;11.070;2023-04-09T10:47:41;99060.47;;;14.14;42.85
70445;BME280;57902;49.638;11.070;2023-04-09T10:52:51;99067.69;;;14.33;42.35
70445;BME280;57902;49.638;11.070;2023-04-09T10:55:43;99059.53;;;13.89;43.14
70445;BME280;57902;49.638;11.070;2023-04-09T10:58:19;99053.22;;;13.97;42.70
70445;BME280;57902;49.638;11.070;2023-04-09T11:00:47;99046.16;;;14.29;41.43
70445;BME280;57902;49.638;11.070;2023-04-09T11:03:27;99047.56;;;14.40;40.88
70445;BME280;57902;49.638;11.070;2023-04-09T11:06:03;99049.22;;;14.15;42.28
70445;BME280;57902;49.638;11.070;2023-04-09T11:08:36;99051.38;;;14.81;40.73
70445;BME280;57902;49.638;11.070;2023-04-09T11:11:04;99043.16;;;14.94;39.07
70445;BME280;57902;49.638;11.070;2023-04-09T11:13:31;99049.22;;;14.69;40.63
70445;BME280;57902;49.638;11.070;2023-04-09T11:15:59;99048.75;;;13.74;42.02
70445;BME280;57902;49.638;11.070;2023-04-09T11:18:29;99053.22;;;13.97;40.57
70445;BME280;57902;49.638;11.070;2023-04-09T11:20:57;99054.09;;;13.68;40.21
70445;BME280;57902;49.638;11.070;2023-04-09T11:23:24;99043.00;;;13.93;41.05
70445;BME280;57902;49.638;11.070;2023-04-09T11:25:52;99045.25;;;13.75;41.61
70445;BME280;57902;49.638;11.070;2023-04-09T11:28:19;99043.38;;;13.80;40.91
70445;BME280;57902;49.638;11.070;2023-04-09T11:30:46;99040.06;;;13.75;41.30
70445;BME280;57902;49.638;11.070;2023-04-09T11:33:13;99034.78;;;13.50;41.19
70445;BME280;57902;49.638;11.070;2023-04-09T11:35:41;99032.25;;;13.77;39.94
70445;BME280;57902;49.638;11.070;2023-04-09T11:38:08;99037.19;;;12.95;41.41
70445;BME280;57902;49.638;11.070;2023-04-09T11:40:36;99033.53;;;13.01;42.29
70445;BME280;57902;49.638;11.070;2023-04-09T11:43:08;99046.16;;;13.44;41.05
70445;BME280;57902;49.638;11.070;2023-04-09T11:45:35;99036.09;;;13.34;42.13
70445;BME280;57902;49.638;11.070;2023-04-09T11:48:02;99039.38;;;13.40;41.92
70445;BME280;57902;49.638;11.070;2023-04-09T11:50:31;99040.50;;;13.61;41.77
70445;BME280;57902;49.638;11.070;2023-04-09T11:52:57;99037.97;;;13.60;41.24
70445;BME280;57902;49.638;11.070;2023-04-09T11:55:26;99046.06;;;13.47;41.57
70445;BME280;57902;49.638;11.070;2023-04-09T11:58:00;99041.56;;;13.24;41.05
70445;BME280;57902;49.638;11.070;2023-04-09T12:00:31;99043.03;;;13.31;41.47
70445;BME280;57902;49.638;11.070;2023-04-09T12:03:00;99043.44;;;13.49;40.77
70445;BME280;57902;49.638;11.070;2023-04-09T12:05:32;99033.25;;;13.43;41.94
70445;BME280;57902;49.638;11.070;2023-04-09T12:08:01;99032.91;;;13.24;42.84
70445;BME280;57902;49.638;11.070;2023-04-09T12:10:32;99042.06;;;13.37;40.57
70445;BME280;57902;49.638;11.070;2023-04-09T12:13:06;99033.19;;;13.15;40.73
70445;BME280;57902;49.638;11.070;2023-04-09T12:15:37;99038.41;;;13.13;40.48
70445;BME280;57902;49.638;11.070;2023-04-09T12:18:12;99038.63;;;13.05;41.61
70445;BME280;57902;49.638;11.070;2023-04-09T12:20:40;99030.34;;;12.92;42.11
70445;BME280;57902;49.638;11.070;2023-04-09T12:23:12;99031.06;;;13.29;41.99
70445;BME280;57902;49.638;11.070;2023-04-09T12:25:41;99040.03;;;13.17;41.54
70445;BME280;57902;49.638;11.070;2023-04-09T12:28:11;99030.44;;;13.51;41.37
70445;BME280;57902;49.638;11.070;2023-04-09T12:30:43;99026.69;;;13.61;40.69
70445;BME280;57902;49.638;11.070;2023-04-09T12:33:10;99031.41;;;13.48;40.69
70445;BME280;57902;49.638;11.070;2023-04-09T12:35:37;99034.97;;;13.44;39.99
70445;BME280;57902;49.638;11.070;2023-04-09T12:38:04;99026.91;;;13.81;39.37
70445;BME280;57902;49.638;11.070;2023-04-09T12:40:31;99022.84;;;13.44;40.44
70445;BME280;57902;49.638;11.070;2023-04-09T12:42:57;99027.06;;;13.48;40.57
70445;BME280;57902;49.638;11.070;2023-04-09T12:45:24;99021.44;;;13.64;40.31
70445;BME280;57902;49.638;11.070;2023-04-09T12:47:50;99022.28;;;13.64;40.50
70445;BME280;57902;49.638;11.070;2023-04-09T12:50:20;99022.22;;;13.66;40.19
70445;BME280;57902;49.638;11.070;2023-04-09T12:52:46;99023.75;;;13.73;40.27
70445;BME280;57902;49.638;11.070;2023-04-09T12:55:16;99014.13;;;13.77;39.66
70445;BME280;57902;49.638;11.070;2023-04-09T12:57:51;99003.75;;;14.05;40.13
70445;BME280;57902;49.638;11.070;2023-04-09T13:00:18;99001.78;;;14.12;39.96
70445;BME280;57902;49.638;11.070;2023-04-09T13:02:45;98995.47;;;14.46;39.32
70445;BME280;57902;49.638;11.070;2023-04-09T13:05:11;98995.19;;;14.02;39.69
70445;BME280;57902;49.638;11.070;2023-04-09T13:07:38;98989.38;;;13.95;40.62
70445;BME280;57902;49.638;11.070;2023-04-09T13:10:08;98994.72;;;14.17;39.86
70445;BME280;57902;49.638;11.070;2023-04-09T13:12:35;98989.09;;;14.29;40.29
70445;BME280;57902;49.638;11.070;2023-04-09T13:15:06;98999.28;;;13.82;39.81
70445;BME280;57902;49.638;11.070;2023-04-09T13:17:35;98991.03;;;13.69;39.76
70445;BME280;57902;49.638;11.070;2023-04-09T13:20:02;98987.88;;;13.59;40.26
70445;BME280;57902;49.638;11.070;2023-04-09T13:22:29;98986.28;;;13.83;39.98
70445;BME280;57902;49.638;11.070;2023-04-09T13:24:55;98990.50;;;13.58;40.79
70445;BME280;57902;49.638;11.070;2023-04-09T13:27:22;98984.44;;;13.29;41.63
70445;BME280;57902;49.638;11.070;2023-04-09T13:29:49;98987.50;;;13.43;40.79
70445;BME280;57902;49.638;11.070;2023-04-09T13:32:16;98987.66;;;13.37;41.60
70445;BME280;57902;49.638;11.070;2023-04-09T13:34:51;98983.66;;;13.57;40.73
70445;BME280;57902;49.638;11.070;2023-04-09T13:37:22;98982.97;;;13.50;41.66
70445;BME280;57902;49.638;11.070;2023-04-09T13:39:54;98975.63;;;13.64;40.96
70445;BME280;57902;49.638;11.070;2023-04-09T13:42:22;98966.84;;;13.70;40.46